Disclaimer

Please do not use the information listed here in-flight or in-navigation, as they are not provided to us by the airports but are provided by volunteers, so they might be outdated.

Search


Regions


Airport information page

Radio informations:
Tower (TWR) - 118.1 MHz
Approach (APP) - 128.8 MHz

Airport informations:
Latitude: 15° 06' 20.20" S
Longitude: 039° 16' 54.48" E
Elevation: 1444 feet - 440 meters
Operating hours: Remarks
Operating agency: Civil government, landing fees and diplomatic clearance may be required
Timezone: UTC+2
Fuel: Jet A1, without icing nhibitor.

100/130 MIL Spec, low lead, aviation gasoline (BLUE)

Runway information:
05/23 - 6562 x 148 feet< - >2000 x 45 meters
13/31 - 5135 x 148 feet< - >1565 x 45 meters

Recent METARs:
FQNP 131400Z 21006KT 9999 SCT020 30/15 Q1013
FQNP 131400Z 21006KT 9999 SCT020 30/15 Q1013
FQNP 131500Z 22007KT 9999 SCT020 30/14 Q1013

Airport on the map: